sensor_id;sensor_type;location;lat;lon;timestamp;temperature;humidity
5334;DHT22;2689;50.954;7.116;2023-11-21T00:00:23;10.10;99.90
5334;DHT22;2689;50.954;7.116;2023-11-21T00:02:50;10.10;99.90
5334;DHT22;2689;50.954;7.116;2023-11-21T00:05:17;10.10;99.90
5334;DHT22;2689;50.954;7.116;2023-11-21T00:07:44;10.00;99.90
5334;DHT22;2689;50.954;7.116;2023-11-21T00:10:11;10.00;99.90
5334;DHT22;2689;50.954;7.116;2023-11-21T00:12:41;10.00;99.90
5334;DHT22;2689;50.954;7.116;2023-11-21T00:15:08;10.00;99.90
5334;DHT22;2689;50.954;7.116;2023-11-21T00:17:36;10.00;99.90
5334;DHT22;2689;50.954;7.116;2023-11-21T00:20:05;10.00;99.90
5334;DHT22;2689;50.954;7.116;2023-11-21T00:22:33;9.90;99.90
5334;DHT22;2689;50.954;7.116;2023-11-21T00:25:00;9.90;99.90
5334;DHT22;2689;50.954;7.116;2023-11-21T00:27:26;9.90;99.90
5334;DHT22;2689;50.954;7.116;2023-11-21T00:29:54;9.90;99.90
5334;DHT22;2689;50.954;7.116;2023-11-21T00:32:21;9.90;99.90
5334;DHT22;2689;50.954;7.116;2023-11-21T00:34:48;9.90;99.90
5334;DHT22;2689;50.954;7.116;2023-11-21T00:37:15;9.90;99.90
5334;DHT22;2689;50.954;7.116;2023-11-21T00:39:41;9.80;99.90
5334;DHT22;2689;50.954;7.116;2023-11-21T00:42:08;9.80;99.90
5334;DHT22;2689;50.954;7.116;2023-11-21T00:44:37;9.70;99.90
5334;DHT22;2689;50.954;7.116;2023-11-21T00:47:05;9.70;99.90
5334;DHT22;2689;50.954;7.116;2023-11-21T00:49:33;9.70;99.90
5334;DHT22;2689;50.954;7.116;2023-11-21T00:52:00;9.70;99.90
5334;DHT22;2689;50.954;7.116;2023-11-21T00:54:28;9.60;99.90
5334;DHT22;2689;50.954;7.116;2023-11-21T00:56:55;9.60;99.90
5334;DHT22;2689;50.954;7.116;2023-11-21T00:59:22;9.60;99.90
5334;DHT22;2689;50.954;7.116;2023-11-21T01:01:49;9.50;99.90
5334;DHT22;2689;50.954;7.116;2023-11-21T01:04:18;9.50;99.90
5334;DHT22;2689;50.954;7.116;2023-11-21T01:06:44;9.40;99.90
5334;DHT22;2689;50.954;7.116;2023-11-21T01:09:11;9.30;99.90
5334;DHT22;2689;50.954;7.116;2023-11-21T01:11:38;9.30;99.90
5334;DHT22;2689;50.954;7.116;2023-11-21T01:14:05;9.30;99.90
5334;DHT22;2689;50.954;7.116;2023-11-21T01:16:32;9.20;99.90
5334;DHT22;2689;50.954;7.116;2023-11-21T01:18:58;9.30;99.90
5334;DHT22;2689;50.954;7.116;2023-11-21T01:21:27;9.20;99.90
5334;DHT22;2689;50.954;7.116;2023-11-21T01:23:54;9.20;99.90
5334;DHT22;2689;50.954;7.116;2023-11-21T01:26:21;9.10;99.90
5334;DHT22;2689;50.954;7.116;2023-11-21T01:28:48;9.10;99.90
5334;DHT22;2689;50.954;7.116;2023-11-21T01:31:15;9.10;99.90
5334;DHT22;2689;50.954;7.116;2023-11-21T01:33:42;9.00;99.90
5334;DHT22;2689;50.954;7.116;2023-11-21T01:36:10;9.00;99.90
5334;DHT22;2689;50.954;7.116;2023-11-21T01:38:38;9.10;99.90
5334;DHT22;2689;50.954;7.116;2023-11-21T01:41:05;9.10;99.90
5334;DHT22;2689;50.954;7.116;2023-11-21T01:43:32;9.10;99.90
5334;DHT22;2689;50.954;7.116;2023-11-21T01:45:59;9.10;99.90
5334;DHT22;2689;50.954;7.116;2023-11-21T01:48:27;9.10;99.90
5334;DHT22;2689;50.954;7.116;2023-11-21T01:50:54;9.10;99.90
5334;DHT22;2689;50.954;7.116;2023-11-21T01:53:21;9.10;99.90
5334;DHT22;2689;50.954;7.116;2023-11-21T01:55:49;9.10;99.90
5334;DHT22;2689;50.954;7.116;2023-11-21T01:58:16;9.00;99.90
5334;DHT22;2689;50.954;7.116;2023-11-21T02:00:43;9.00;99.90
5334;DHT22;2689;50.954;7.116;2023-11-21T02:03:10;9.00;99.90
5334;DHT22;2689;50.954;7.116;2023-11-21T02:05:37;9.00;99.90
5334;DHT22;2689;50.954;7.116;2023-11-21T02:08:04;9.00;99.90
5334;DHT22;2689;50.954;7.116;2023-11-21T02:10:32;9.10;99.90
5334;DHT22;2689;50.954;7.116;2023-11-21T02:13:00;9.10;99.90
5334;DHT22;2689;50.954;7.116;2023-11-21T02:15:28;9.10;99.90
5334;DHT22;2689;50.954;7.116;2023-11-21T02:17:55;9.00;99.90
5334;DHT22;2689;50.954;7.116;2023-11-21T02:20:24;9.00;99.90
5334;DHT22;2689;50.954;7.116;2023-11-21T02:22:54;9.00;99.90
5334;DHT22;2689;50.954;7.116;2023-11-21T02:25:23;8.90;99.90
5334;DHT22;2689;50.954;7.116;2023-11-21T02:27:50;8.90;99.90
5334;DHT22;2689;50.954;7.116;2023-11-21T02:30:17;8.70;99.90
5334;DHT22;2689;50.954;7.116;2023-11-21T02:32:44;8.70;99.90
5334;DHT22;2689;50.954;7.116;2023-11-21T02:35:11;8.60;99.90
5334;DHT22;2689;50.954;7.116;2023-11-21T02:37:38;8.60;99.90
5334;DHT22;2689;50.954;7.116;2023-11-21T02:40:09;8.50;99.90
5334;DHT22;2689;50.954;7.116;2023-11-21T02:42:38;8.50;99.90
5334;DHT22;2689;50.954;7.116;2023-11-21T02:45:06;8.50;99.90
5334;DHT22;2689;50.954;7.116;2023-11-21T02:47:33;8.60;99.90
5334;DHT22;2689;50.954;7.116;2023-11-21T02:50:00;8.60;99.90
5334;DHT22;2689;50.954;7.116;2023-11-21T02:52:27;8.70;99.90
5334;DHT22;2689;50.954;7.116;2023-11-21T02:54:53;8.70;99.90
5334;DHT22;2689;50.954;7.116;2023-11-21T02:57:21;8.70;99.90
5334;DHT22;2689;50.954;7.116;2023-11-21T02:59:48;8.80;99.90
5334;DHT22;2689;50.954;7.116;2023-11-21T03:02:15;8.80;99.90
5334;DHT22;2689;50.954;7.116;2023-11-21T03:04:42;8.80;99.90
5334;DHT22;2689;50.954;7.116;2023-11-21T03:07:09;8.90;99.90
5334;DHT22;2689;50.954;7.116;2023-11-21T03:09:36;8.80;99.90
5334;DHT22;2689;50.954;7.116;2023-11-21T03:12:04;8.80;99.90
5334;DHT22;2689;50.954;7.116;2023-11-21T03:14:32;8.80;99.90
5334;DHT22;2689;50.954;7.116;2023-11-21T03:16:59;8.90;99.90
5334;DHT22;2689;50.954;7.116;2023-11-21T03:19:26;8.90;99.90
5334;DHT22;2689;50.954;7.116;2023-11-21T03:21:52;8.90;99.90
5334;DHT22;2689;50.954;7.116;2023-11-21T03:24:19;9.00;99.90
5334;DHT22;2689;50.954;7.116;2023-11-21T03:26:48;9.00;99.90
5334;DHT22;2689;50.954;7.116;2023-11-21T03:29:15;8.90;99.90
5334;DHT22;2689;50.954;7.116;2023-11-21T03:31:43;8.90;99.90
5334;DHT22;2689;50.954;7.116;2023-11-21T03:34:15;9.00;99.90
5334;DHT22;2689;50.954;7.116;2023-11-21T03:36:43;9.00;99.90
5334;DHT22;2689;50.954;7.116;2023-11-21T03:39:11;9.00;99.90
5334;DHT22;2689;50.954;7.116;2023-11-21T03:41:38;9.00;99.90
5334;DHT22;2689;50.954;7.116;2023-11-21T03:44:05;9.00;99.90
5334;DHT22;2689;50.954;7.116;2023-11-21T03:46:32;9.00;99.90
5334;DHT22;2689;50.954;7.116;2023-11-21T03:49:00;8.90;99.90
5334;DHT22;2689;50.954;7.116;2023-11-21T03:51:27;8.90;99.90
5334;DHT22;2689;50.954;7.116;2023-11-21T03:53:53;9.00;99.90
5334;DHT22;2689;50.954;7.116;2023-11-21T03:56:20;9.00;99.90
5334;DHT22;2689;50.954;7.116;2023-11-21T03:58:48;9.10;99.90
5334;DHT22;2689;50.954;7.116;2023-11-21T04:01:20;9.10;99.90
5334;DHT22;2689;50.954;7.116;2023-11-21T04:03:48;9.10;99.90
5334;DHT22;2689;50.954;7.116;2023-11-21T04:06:16;9.10;99.90
5334;DHT22;2689;50.954;7.116;2023-11-21T04:08:43;9.10;99.90
5334;DHT22;2689;50.954;7.116;2023-11-21T04:11:10;9.10;99.90
5334;DHT22;2689;50.954;7.116;2023-11-21T04:13:38;9.10;99.90
5334;DHT22;2689;50.954;7.116;2023-11-21T04:16:05;9.10;99.90
5334;DHT22;2689;50.954;7.116;2023-11-21T04:18:33;9.10;99.90
5334;DHT22;2689;50.954;7.116;2023-11-21T04:21:00;9.10;99.90
5334;DHT22;2689;50.954;7.116;2023-11-21T04:23:29;9.10;99.90
5334;DHT22;2689;50.954;7.116;2023-11-21T04:25:57;9.10;99.90
5334;DHT22;2689;50.954;7.116;2023-11-21T04:28:24;9.20;99.90
5334;DHT22;2689;50.954;7.116;2023-11-21T04:30:51;9.20;99.90
5334;DHT22;2689;50.954;7.116;2023-11-21T04:33:18;9.20;99.90
5334;DHT22;2689;50.954;7.116;2023-11-21T04:35:45;9.20;99.90
5334;DHT22;2689;50.954;7.116;2023-11-21T04:38:12;9.20;99.90
5334;DHT22;2689;50.954;7.116;2023-11-21T04:40:40;9.10;99.90
5334;DHT22;2689;50.954;7.116;2023-11-21T04:43:06;9.00;99.90
5334;DHT22;2689;50.954;7.116;2023-11-21T04:45:33;9.00;99.90
5334;DHT22;2689;50.954;7.116;2023-11-21T04:48:00;9.00;99.90
5334;DHT22;2689;50.954;7.116;2023-11-21T04:50:27;9.00;99.90
5334;DHT22;2689;50.954;7.116;2023-11-21T04:52:53;8.90;99.90
5334;DHT22;2689;50.954;7.116;2023-11-21T04:55:20;8.90;99.90
5334;DHT22;2689;50.954;7.116;2023-11-21T04:57:48;8.90;99.90
5334;DHT22;2689;50.954;7.116;2023-11-21T05:00:15;9.00;99.90
5334;DHT22;2689;50.954;7.116;2023-11-21T05:02:42;9.00;99.90
5334;DHT22;2689;50.954;7.116;2023-11-21T05:05:10;9.10;99.90
5334;DHT22;2689;50.954;7.116;2023-11-21T05:07:38;9.10;99.90
5334;DHT22;2689;50.954;7.116;2023-11-21T05:10:05;9.10;99.90
5334;DHT22;2689;50.954;7.116;2023-11-21T05:12:36;9.00;99.90
5334;DHT22;2689;50.954;7.116;2023-11-21T05:15:06;9.10;99.90
5334;DHT22;2689;50.954;7.116;2023-11-21T05:17:35;9.10;99.90
5334;DHT22;2689;50.954;7.116;2023-11-21T05:20:02;9.10;99.90
5334;DHT22;2689;50.954;7.116;2023-11-21T05:22:33;9.20;99.90
5334;DHT22;2689;50.954;7.116;2023-11-21T05:25:00;9.10;99.90
5334;DHT22;2689;50.954;7.116;2023-11-21T05:27:28;9.10;99.90
5334;DHT22;2689;50.954;7.116;2023-11-21T05:29:56;9.10;99.90
5334;DHT22;2689;50.954;7.116;2023-11-21T05:32:24;9.00;99.90
5334;DHT22;2689;50.954;7.116;2023-11-21T05:34:52;8.90;99.90
5334;DHT22;2689;50.954;7.116;2023-11-21T05:37:18;8.90;99.90
5334;DHT22;2689;50.954;7.116;2023-11-21T05:39:45;8.90;99.90
5334;DHT22;2689;50.954;7.116;2023-11-21T05:42:12;8.90;99.90
5334;DHT22;2689;50.954;7.116;2023-11-21T05:44:42;8.90;99.90
5334;DHT22;2689;50.954;7.116;2023-11-21T05:47:09;8.90;99.90
5334;DHT22;2689;50.954;7.116;2023-11-21T05:49:37;8.90;99.90
5334;DHT22;2689;50.954;7.116;2023-11-21T05:52:05;8.90;99.90
5334;DHT22;2689;50.954;7.116;2023-11-21T05:54:32;8.90;99.90
5334;DHT22;2689;50.954;7.116;2023-11-21T05:56:59;8.90;99.90
5334;DHT22;2689;50.954;7.116;2023-11-21T05:59:26;8.90;99.90
5334;DHT22;2689;50.954;7.116;2023-11-21T06:01:52;9.00;99.90
5334;DHT22;2689;50.954;7.116;2023-11-21T06:04:19;9.00;99.90
5334;DHT22;2689;50.954;7.116;2023-11-21T06:06:51;8.90;99.90
5334;DHT22;2689;50.954;7.116;2023-11-21T06:09:18;8.90;99.90
5334;DHT22;2689;50.954;7.116;2023-11-21T06:11:45;8.90;99.90
5334;DHT22;2689;50.954;7.116;2023-11-21T06:14:11;8.90;99.90
5334;DHT22;2689;50.954;7.116;2023-11-21T06:16:38;8.90;99.90
5334;DHT22;2689;50.954;7.116;2023-11-21T06:19:06;8.90;99.90
5334;DHT22;2689;50.954;7.116;2023-11-21T06:21:33;8.90;99.90
5334;DHT22;2689;50.954;7.116;2023-11-21T06:24:02;8.90;99.90
5334;DHT22;2689;50.954;7.116;2023-11-21T06:26:29;9.00;99.90
5334;DHT22;2689;50.954;7.116;2023-11-21T06:28:57;9.00;99.90
5334;DHT22;2689;50.954;7.116;2023-11-21T06:31:24;9.00;99.90
5334;DHT22;2689;50.954;7.116;2023-11-21T06:33:50;9.00;99.90
5334;DHT22;2689;50.954;7.116;2023-11-21T06:36:18;9.00;99.90
5334;DHT22;2689;50.954;7.116;2023-11-21T06:38:45;9.10;99.90
5334;DHT22;2689;50.954;7.116;2023-11-21T06:41:13;9.10;99.90
5334;DHT22;2689;50.954;7.116;2023-11-21T06:43:41;9.20;99.90
5334;DHT22;2689;50.954;7.116;2023-11-21T06:46:10;9.20;99.90
5334;DHT22;2689;50.954;7.116;2023-11-21T06:48:40;9.20;99.90
5334;DHT22;2689;50.954;7.116;2023-11-21T06:51:07;9.20;99.90
5334;DHT22;2689;50.954;7.116;2023-11-21T06:53:34;9.20;99.90
5334;DHT22;2689;50.954;7.116;2023-11-21T06:56:02;9.20;99.90
5334;DHT22;2689;50.954;7.116;2023-11-21T06:58:32;9.20;99.90
5334;DHT22;2689;50.954;7.116;2023-11-21T07:00:59;9.20;99.90
5334;DHT22;2689;50.954;7.116;2023-11-21T07:03:26;9.10;99.90
5334;DHT22;2689;50.954;7.116;2023-11-21T07:05:53;9.00;99.90
5334;DHT22;2689;50.954;7.116;2023-11-21T07:08:19;8.90;99.90
5334;DHT22;2689;50.954;7.116;2023-11-21T07:10:46;9.00;99.90
5334;DHT22;2689;50.954;7.116;2023-11-21T07:13:13;9.10;99.90
5334;DHT22;2689;50.954;7.116;2023-11-21T07:15:41;9.10;99.90
5334;DHT22;2689;50.954;7.116;2023-11-21T07:18:09;9.20;99.90
5334;DHT22;2689;50.954;7.116;2023-11-21T07:20:39;9.30;99.90
5334;DHT22;2689;50.954;7.116;2023-11-21T07:23:05;9.30;99.90
5334;DHT22;2689;50.954;7.116;2023-11-21T07:25:32;9.40;99.90
5334;DHT22;2689;50.954;7.116;2023-11-21T07:28:00;9.40;99.90
5334;DHT22;2689;50.954;7.116;2023-11-21T07:30:27;9.50;99.90
5334;DHT22;2689;50.954;7.116;2023-11-21T07:32:55;9.50;99.90
5334;DHT22;2689;50.954;7.116;2023-11-21T07:35:22;9.60;99.90
5334;DHT22;2689;50.954;7.116;2023-11-21T07:37:49;9.60;99.90
5334;DHT22;2689;50.954;7.116;2023-11-21T07:40:16;9.60;99.90
5334;DHT22;2689;50.954;7.116;2023-11-21T07:42:43;9.70;99.90
5334;DHT22;2689;50.954;7.116;2023-11-21T07:45:10;9.70;99.90
5334;DHT22;2689;50.954;7.116;2023-11-21T07:47:37;9.70;99.90
5334;DHT22;2689;50.954;7.116;2023-11-21T07:50:08;9.70;99.90
5334;DHT22;2689;50.954;7.116;2023-11-21T07:52:35;9.60;99.90
5334;DHT22;2689;50.954;7.116;2023-11-21T07:55:02;9.60;99.90
5334;DHT22;2689;50.954;7.116;2023-11-21T07:57:29;9.60;99.90
5334;DHT22;2689;50.954;7.116;2023-11-21T07:59:56;9.60;99.90
5334;DHT22;2689;50.954;7.116;2023-11-21T08:02:23;9.70;99.90
5334;DHT22;2689;50.954;7.116;2023-11-21T08:04:51;9.70;99.90
5334;DHT22;2689;50.954;7.116;2023-11-21T08:07:19;9.80;99.90
5334;DHT22;2689;50.954;7.116;2023-11-21T08:09:47;9.90;99.90
5334;DHT22;2689;50.954;7.116;2023-11-21T08:12:15;9.80;99.90
5334;DHT22;2689;50.954;7.116;2023-11-21T08:14:43;9.90;99.90
5334;DHT22;2689;50.954;7.116;2023-11-21T08:17:10;10.00;99.90
5334;DHT22;2689;50.954;7.116;2023-11-21T08:19:36;10.00;99.90
5334;DHT22;2689;50.954;7.116;2023-11-21T08:22:03;10.10;99.90
5334;DHT22;2689;50.954;7.116;2023-11-21T08:24:35;10.10;99.90
5334;DHT22;2689;50.954;7.116;2023-11-21T08:27:03;10.10;99.90
5334;DHT22;2689;50.954;7.116;2023-11-21T08:29:30;10.20;99.90
5334;DHT22;2689;50.954;7.116;2023-11-21T08:31:57;10.20;99.90
5334;DHT22;2689;50.954;7.116;2023-11-21T08:34:25;10.30;99.90
5334;DHT22;2689;50.954;7.116;2023-11-21T08:36:52;10.30;99.90
5334;DHT22;2689;50.954;7.116;2023-11-21T08:39:19;10.40;99.90
5334;DHT22;2689;50.954;7.116;2023-11-21T08:41:47;10.40;99.90
5334;DHT22;2689;50.954;7.116;2023-11-21T08:44:13;10.30;99.90
5334;DHT22;2689;50.954;7.116;2023-11-21T08:46:42;10.30;99.90
5334;DHT22;2689;50.954;7.116;2023-11-21T08:49:10;10.40;99.90
5334;DHT22;2689;50.954;7.116;2023-11-21T08:51:37;10.40;99.90
5334;DHT22;2689;50.954;7.116;2023-11-21T08:54:04;10.40;99.90
5334;DHT22;2689;50.954;7.116;2023-11-21T08:56:33;10.40;99.90
5334;DHT22;2689;50.954;7.116;2023-11-21T08:59:01;10.40;99.90
5334;DHT22;2689;50.954;7.116;2023-11-21T09:01:28;10.40;99.90
5334;DHT22;2689;50.954;7.116;2023-11-21T09:03:56;10.50;99.90
5334;DHT22;2689;50.954;7.116;2023-11-21T09:06:23;10.50;99.90
5334;DHT22;2689;50.954;7.116;2023-11-21T09:08:50;10.50;99.90
5334;DHT22;2689;50.954;7.116;2023-11-21T09:11:17;10.50;99.90
5334;DHT22;2689;50.954;7.116;2023-11-21T09:13:44;10.50;99.90
5334;DHT22;2689;50.954;7.116;2023-11-21T09:16:13;10.50;99.90
5334;DHT22;2689;50.954;7.116;2023-11-21T09:18:40;10.60;99.90
5334;DHT22;2689;50.954;7.116;2023-11-21T09:21:07;10.60;99.90
5334;DHT22;2689;50.954;7.116;2023-11-21T09:23:35;10.50;99.90
5334;DHT22;2689;50.954;7.116;2023-11-21T09:26:01;10.50;99.90
5334;DHT22;2689;50.954;7.116;2023-11-21T09:28:28;10.60;99.90
5334;DHT22;2689;50.954;7.116;2023-11-21T09:30:55;10.60;99.90
5334;DHT22;2689;50.954;7.116;2023-11-21T09:33:23;10.60;99.90
5334;DHT22;2689;50.954;7.116;2023-11-21T09:35:51;10.60;99.90
5334;DHT22;2689;50.954;7.116;2023-11-21T09:38:18;10.60;99.90
5334;DHT22;2689;50.954;7.116;2023-11-21T09:40:45;10.60;99.90
5334;DHT22;2689;50.954;7.116;2023-11-21T09:43:16;10.60;99.90
5334;DHT22;2689;50.954;7.116;2023-11-21T09:45:45;10.60;99.90
5334;DHT22;2689;50.954;7.116;2023-11-21T09:48:14;10.60;99.90
5334;DHT22;2689;50.954;7.116;2023-11-21T09:50:43;10.60;99.90
5334;DHT22;2689;50.954;7.116;2023-11-21T09:53:13;10.60;99.90
5334;DHT22;2689;50.954;7.116;2023-11-21T09:55:45;10.60;99.90
5334;DHT22;2689;50.954;7.116;2023-11-21T09:58:13;10.60;99.90
5334;DHT22;2689;50.954;7.116;2023-11-21T10:00:41;10.70;99.90
5334;DHT22;2689;50.954;7.116;2023-11-21T10:03:08;10.70;99.90
5334;DHT22;2689;50.954;7.116;2023-11-21T10:05:35;10.70;99.90
5334;DHT22;2689;50.954;7.116;2023-11-21T10:08:07;10.80;99.90
5334;DHT22;2689;50.954;7.116;2023-11-21T10:10:35;10.80;99.90
5334;DHT22;2689;50.954;7.116;2023-11-21T10:13:04;10.80;99.90
5334;DHT22;2689;50.954;7.116;2023-11-21T10:15:33;10.90;99.90
5334;DHT22;2689;50.954;7.116;2023-11-21T10:18:02;10.90;99.90
5334;DHT22;2689;50.954;7.116;2023-11-21T10:20:32;11.00;99.90
5334;DHT22;2689;50.954;7.116;2023-11-21T10:23:00;11.00;99.90
5334;DHT22;2689;50.954;7.116;2023-11-21T10:25:29;11.00;99.90
5334;DHT22;2689;50.954;7.116;2023-11-21T10:27:58;11.00;99.90
5334;DHT22;2689;50.954;7.116;2023-11-21T10:30:32;11.10;99.90
5334;DHT22;2689;50.954;7.116;2023-11-21T10:33:02;11.10;99.90
5334;DHT22;2689;50.954;7.116;2023-11-21T10:35:42;11.10;99.90
5334;DHT22;2689;50.954;7.116;2023-11-21T10:38:12;11.10;99.90
5334;DHT22;2689;50.954;7.116;2023-11-21T10:40:41;11.10;99.90
5334;DHT22;2689;50.954;7.116;2023-11-21T10:43:10;11.10;99.90
5334;DHT22;2689;50.954;7.116;2023-11-21T10:45:38;11.10;99.90
5334;DHT22;2689;50.954;7.116;2023-11-21T10:48:05;11.10;99.90
5334;DHT22;2689;50.954;7.116;2023-11-21T10:50:34;11.10;99.90
5334;DHT22;2689;50.954;7.116;2023-11-21T10:53:02;11.10;99.90
5334;DHT22;2689;50.954;7.116;2023-11-21T10:55:31;11.10;99.90
5334;DHT22;2689;50.954;7.116;2023-11-21T10:58:01;11.10;99.90
5334;DHT22;2689;50.954;7.116;2023-11-21T11:00:31;11.00;99.90
5334;DHT22;2689;50.954;7.116;2023-11-21T11:02:58;11.00;99.90
5334;DHT22;2689;50.954;7.116;2023-11-21T11:05:27;11.00;99.90
5334;DHT22;2689;50.954;7.116;2023-11-21T11:07:58;11.00;99.90
5334;DHT22;2689;50.954;7.116;2023-11-21T11:10:26;10.90;99.90
5334;DHT22;2689;50.954;7.116;2023-11-21T11:12:54;10.90;99.90
5334;DHT22;2689;50.954;7.116;2023-11-21T11:15:24;10.90;99.90
5334;DHT22;2689;50.954;7.116;2023-11-21T11:17:52;10.90;99.90
5334;DHT22;2689;50.954;7.116;2023-11-21T11:20:23;10.80;99.90
5334;DHT22;2689;50.954;7.116;2023-11-21T11:23:05;10.80;99.90
5334;DHT22;2689;50.954;7.116;2023-11-21T11:25:53;10.80;99.90
5334;DHT22;2689;50.954;7.116;2023-11-21T11:28:27;10.80;99.90
5334;DHT22;2689;50.954;7.116;2023-11-21T11:31:10;10.90;99.90
5334;DHT22;2689;50.954;7.116;2023-11-21T11:33:44;10.90;99.90
5334;DHT22;2689;50.954;7.116;2023-11-21T11:36:17;11.00;99.90
5334;DHT22;2689;50.954;7.116;2023-11-21T11:38:47;11.10;99.90
5334;DHT22;2689;50.954;7.116;2023-11-21T11:41:24;11.10;99.90
5334;DHT22;2689;50.954;7.116;2023-11-21T11:43:51;11.10;99.90
5334;DHT22;2689;50.954;7.116;2023-11-21T11:46:19;11.10;99.90
5334;DHT22;2689;50.954;7.116;2023-11-21T11:48:47;11.20;99.90
5334;DHT22;2689;50.954;7.116;2023-11-21T11:51:15;11.20;99.90
5334;DHT22;2689;50.954;7.116;2023-11-21T11:53:46;11.20;99.90
5334;DHT22;2689;50.954;7.116;2023-11-21T11:56:23;11.20;99.90
5334;DHT22;2689;50.954;7.116;2023-11-21T11:58:52;11.20;99.90
5334;DHT22;2689;50.954;7.116;2023-11-21T12:01:21;11.20;99.90
5334;DHT22;2689;50.954;7.116;2023-11-21T12:06:51;11.30;99.90
5334;DHT22;2689;50.954;7.116;2023-11-21T12:09:18;11.30;99.90
5334;DHT22;2689;50.954;7.116;2023-11-21T12:11:46;11.30;99.90
5334;DHT22;2689;50.954;7.116;2023-11-21T12:14:13;11.30;99.90
5334;DHT22;2689;50.954;7.116;2023-11-21T12:16:42;11.30;99.90
5334;DHT22;2689;50.954;7.116;2023-11-21T12:19:09;11.40;99.90
5334;DHT22;2689;50.954;7.116;2023-11-21T12:21:36;11.40;99.90
5334;DHT22;2689;50.954;7.116;2023-11-21T12:24:04;11.40;99.90
5334;DHT22;2689;50.954;7.116;2023-11-21T12:26:34;11.40;99.90
5334;DHT22;2689;50.954;7.116;2023-11-21T12:29:00;11.40;99.90
5334;DHT22;2689;50.954;7.116;2023-11-21T12:31:29;11.50;99.90
5334;DHT22;2689;50.954;7.116;2023-11-21T12:33:58;11.50;99.90
5334;DHT22;2689;50.954;7.116;2023-11-21T12:36:24;11.50;99.90
5334;DHT22;2689;50.954;7.116;2023-11-21T12:38:52;11.60;99.90
5334;DHT22;2689;50.954;7.116;2023-11-21T12:41:18;11.60;99.90
5334;DHT22;2689;50.954;7.116;2023-11-21T12:43:46;11.60;99.90
5334;DHT22;2689;50.954;7.116;2023-11-21T12:46:14;11.60;99.90
5334;DHT22;2689;50.954;7.116;2023-11-21T12:48:44;11.60;99.90
5334;DHT22;2689;50.954;7.116;2023-11-21T12:51:12;11.60;99.90
5334;DHT22;2689;50.954;7.116;2023-11-21T12:53:41;11.60;99.90
5334;DHT22;2689;50.954;7.116;2023-11-21T12:56:10;11.60;99.90
5334;DHT22;2689;50.954;7.116;2023-11-21T12:58:37;11.60;99.90
5334;DHT22;2689;50.954;7.116;2023-11-21T13:01:05;11.60;99.90
5334;DHT22;2689;50.954;7.116;2023-11-21T13:03:37;11.60;99.90
5334;DHT22;2689;50.954;7.116;2023-11-21T13:06:06;11.60;99.90
5334;DHT22;2689;50.954;7.116;2023-11-21T13:08:36;11.60;99.90
5334;DHT22;2689;50.954;7.116;2023-11-21T13:11:05;11.70;99.90
5334;DHT22;2689;50.954;7.116;2023-11-21T13:13:32;11.70;99.90
5334;DHT22;2689;50.954;7.116;2023-11-21T13:16:00;11.90;99.90
5334;DHT22;2689;50.954;7.116;2023-11-21T13:18:30;12.00;99.90
5334;DHT22;2689;50.954;7.116;2023-11-21T13:20:59;12.00;99.90
5334;DHT22;2689;50.954;7.116;2023-11-21T13:23:26;12.00;99.90
5334;DHT22;2689;50.954;7.116;2023-11-21T13:25:56;12.00;99.90
5334;DHT22;2689;50.954;7.116;2023-11-21T13:28:23;12.00;99.90
5334;DHT22;2689;50.954;7.116;2023-11-21T13:30:57;12.00;99.90
5334;DHT22;2689;50.954;7.116;2023-11-21T13:33:28;12.00;99.90
5334;DHT22;2689;50.954;7.116;2023-11-21T13:35:56;12.00;99.90
5334;DHT22;2689;50.954;7.116;2023-11-21T13:38:23;11.90;99.90
5334;DHT22;2689;50.954;7.116;2023-11-21T13:40:50;11.90;99.90
5334;DHT22;2689;50.954;7.116;2023-11-21T13:43:21;11.80;99.90
5334;DHT22;2689;50.954;7.116;2023-11-21T13:45:51;11.70;99.90
5334;DHT22;2689;50.954;7.116;2023-11-21T13:48:26;11.60;99.90
5334;DHT22;2689;50.954;7.116;2023-11-21T13:50:59;11.60;99.90
5334;DHT22;2689;50.954;7.116;2023-11-21T13:53:36;11.50;99.90
5334;DHT22;2689;50.954;7.116;2023-11-21T13:56:04;11.50;99.90
5334;DHT22;2689;50.954;7.116;2023-11-21T13:58:33;11.40;99.90
5334;DHT22;2689;50.954;7.116;2023-11-21T14:01:10;11.40;99.90
5334;DHT22;2689;50.954;7.116;2023-11-21T14:03:50;11.40;99.90
5334;DHT22;2689;50.954;7.116;2023-11-21T14:06:22;11.40;99.90
5334;DHT22;2689;50.954;7.116;2023-11-21T14:08:55;11.40;99.90
5334;DHT22;2689;50.954;7.116;2023-11-21T14:11:22;11.40;99.90
5334;DHT22;2689;50.954;7.116;2023-11-21T14:13:50;11.40;99.90
5334;DHT22;2689;50.954;7.116;2023-11-21T14:16:17;11.50;99.90
5334;DHT22;2689;50.954;7.116;2023-11-21T14:18:44;11.50;99.90
5334;DHT22;2689;50.954;7.116;2023-11-21T14:21:21;11.50;99.90
5334;DHT22;2689;50.954;7.116;2023-11-21T14:23:48;11.40;99.90
5334;DHT22;2689;50.954;7.116;2023-11-21T14:26:15;11.50;99.90
5334;DHT22;2689;50.954;7.116;2023-11-21T14:28:42;11.50;99.90
5334;DHT22;2689;50.954;7.116;2023-11-21T14:31:10;11.50;99.90
5334;DHT22;2689;50.954;7.116;2023-11-21T14:33:39;11.40;99.90
5334;DHT22;2689;50.954;7.116;2023-11-21T14:36:07;11.40;99.90
5334;DHT22;2689;50.954;7.116;2023-11-21T14:38:35;11.40;99.90
5334;DHT22;2689;50.954;7.116;2023-11-21T14:41:02;11.30;99.90
5334;DHT22;2689;50.954;7.116;2023-11-21T14:43:29;11.30;99.90
5334;DHT22;2689;50.954;7.116;2023-11-21T14:45:59;11.20;99.90
5334;DHT22;2689;50.954;7.116;2023-11-21T14:48:28;11.20;99.90
5334;DHT22;2689;50.954;7.116;2023-11-21T14:51:08;11.20;99.90
5334;DHT22;2689;50.954;7.116;2023-11-21T14:53:53;11.30;99.90
5334;DHT22;2689;50.954;7.116;2023-11-21T14:56:20;11.20;99.90
5334;DHT22;2689;50.954;7.116;2023-11-21T14:58:52;11.20;99.90
5334;DHT22;2689;50.954;7.116;2023-11-21T15:01:20;11.20;99.90
5334;DHT22;2689;50.954;7.116;2023-11-21T15:03:57;11.20;99.90
5334;DHT22;2689;50.954;7.116;2023-11-21T15:06:24;11.20;99.90
5334;DHT22;2689;50.954;7.116;2023-11-21T15:08:56;11.20;99.90
5334;DHT22;2689;50.954;7.116;2023-11-21T15:11:45;11.20;99.90
5334;DHT22;2689;50.954;7.116;2023-11-21T15:14:13;11.20;99.90
5334;DHT22;2689;50.954;7.116;2023-11-21T15:16:46;11.10;99.90
5334;DHT22;2689;50.954;7.116;2023-11-21T15:19:17;11.10;99.90
5334;DHT22;2689;50.954;7.116;2023-11-21T15:21:50;11.10;99.90
5334;DHT22;2689;50.954;7.116;2023-11-21T15:24:17;11.10;99.90
5334;DHT22;2689;50.954;7.116;2023-11-21T15:26:43;11.10;99.90
5334;DHT22;2689;50.954;7.116;2023-11-21T15:29:10;11.10;99.90
5334;DHT22;2689;50.954;7.116;2023-11-21T15:31:38;11.10;99.90
5334;DHT22;2689;50.954;7.116;2023-11-21T15:34:09;11.10;99.90
5334;DHT22;2689;50.954;7.116;2023-11-21T15:36:37;11.10;99.90
5334;DHT22;2689;50.954;7.116;2023-11-21T15:39:04;11.10;99.90
5334;DHT22;2689;50.954;7.116;2023-11-21T15:41:33;11.10;99.90
5334;DHT22;2689;50.954;7.116;2023-11-21T15:44:00;11.10;99.90
5334;DHT22;2689;50.954;7.116;2023-11-21T15:46:27;11.10;99.90
5334;DHT22;2689;50.954;7.116;2023-11-21T15:48:54;11.10;99.90
5334;DHT22;2689;50.954;7.116;2023-11-21T15:51:20;11.10;99.90
5334;DHT22;2689;50.954;7.116;2023-11-21T15:53:49;11.00;99.90
5334;DHT22;2689;50.954;7.116;2023-11-21T15:56:17;11.00;99.90
5334;DHT22;2689;50.954;7.116;2023-11-21T15:58:44;11.00;99.90
5334;DHT22;2689;50.954;7.116;2023-11-21T16:01:12;11.00;99.90
5334;DHT22;2689;50.954;7.116;2023-11-21T16:03:39;11.00;99.90
5334;DHT22;2689;50.954;7.116;2023-11-21T16:06:06;11.00;99.90
5334;DHT22;2689;50.954;7.116;2023-11-21T16:08:35;11.00;99.90
5334;DHT22;2689;50.954;7.116;2023-11-21T16:11:04;11.00;99.90
5334;DHT22;2689;50.954;7.116;2023-11-21T16:13:31;10.90;99.90
5334;DHT22;2689;50.954;7.116;2023-11-21T16:15:59;10.90;99.90
5334;DHT22;2689;50.954;7.116;2023-11-21T16:18:26;11.00;99.90